Time;durP1;ratioP1;P1;durP2;ratioP2;P2;SDS_P1;SDS_P2;PMS_P1;PMS_P2;Temp;Humidity;BMP_temperature;BMP_pressure;BME280_temperature;BME280_humidity;BME280_pressure;Samples;Min_cycle;Max_cycle;Signal;HPM_P1;HPM_P2
2022/05/06 00:01:02;;;;;;;19.02;4.05;;;13.40;99.90;;;13.38;100.00;100883.56;4964475;28;20220;-74
2022/05/06 00:03:31;;;;;;;13.50;2.83;;;13.30;99.90;;;13.37;100.00;100877.34;4968129;28;20217;-74
2022/05/06 00:05:59;;;;;;;20.85;4.53;;;13.40;99.90;;;13.42;100.00;100885.34;4970974;28;20228;-74
2022/05/06 00:08:28;;;;;;;28.92;5.80;;;13.30;99.90;;;13.44;100.00;100875.63;4965774;28;20234;-74
2022/05/06 00:10:55;;;;;;;12.60;2.85;;;13.40;99.90;;;13.45;100.00;100865.00;4972414;28;20698;-74
2022/05/06 00:13:23;;;;;;;18.17;3.85;;;13.40;99.90;;;13.51;100.00;100868.56;4971576;28;20217;-74
2022/05/06 00:15:51;;;;;;;24.95;5.18;;;13.40;99.90;;;13.50;100.00;100861.47;4968050;28;20237;-74
2022/05/06 00:18:20;;;;;;;28.10;5.88;;;13.40;99.90;;;13.47;100.00;100858.78;4969663;28;20213;-74
2022/05/06 00:20:48;;;;;;;13.82;3.33;;;13.40;99.90;;;13.48;100.00;100857.91;4972303;28;20211;-74
2022/05/06 00:23:15;;;;;;;28.70;6.22;;;13.40;99.90;;;13.47;100.00;100849.06;4966341;28;20214;-73
2022/05/06 00:25:43;;;;;;;17.92;4.07;;;13.40;99.90;;;13.46;100.00;100847.28;4969152;28;20229;-74
2022/05/06 00:28:12;;;;;;;25.45;5.82;;;13.40;99.90;;;13.44;100.00;100841.97;4959457;28;20228;-74
2022/05/06 00:30:40;;;;;;;23.42;5.25;;;13.30;99.90;;;13.39;100.00;100833.09;4953330;28;20213;-74
2022/05/06 00:33:09;;;;;;;17.20;4.40;;;13.30;99.90;;;13.38;100.00;100836.63;4968473;28;20225;-74
2022/05/06 00:35:37;;;;;;;40.35;9.55;;;13.40;99.90;;;13.37;100.00;100841.94;4953090;28;20236;-74
2022/05/06 00:38:05;;;;;;;13.80;4.57;;;13.30;99.90;;;13.36;100.00;100842.81;4952833;28;20228;-75
2022/05/06 00:40:33;;;;;;;14.70;5.63;;;13.30;99.90;;;13.32;100.00;100841.91;4972457;28;20213;-74
2022/05/06 00:43:01;;;;;;;26.38;6.28;;;13.30;99.90;;;13.38;100.00;100846.38;4971120;28;20213;-74
2022/05/06 00:45:45;;;;;;;16.95;4.07;;;13.30;99.90;;;13.34;100.00;100834.84;4969384;28;20201;-74
2022/05/06 00:48:15;;;;;;;28.23;6.13;;;13.30;99.90;;;13.33;100.00;100835.72;4964797;28;20236;-74
2022/05/06 00:50:45;;;;;;;15.98;3.95;;;13.30;99.90;;;13.40;100.00;100831.31;4955350;28;20216;-73
2022/05/06 00:53:14;;;;;;;20.27;4.43;;;13.30;99.90;;;13.34;100.00;100815.34;4969739;28;20674;-72
2022/05/06 00:55:42;;;;;;;13.35;3.15;;;13.30;99.90;;;13.36;100.00;100827.75;4948105;28;20229;-73
2022/05/06 00:58:11;;;;;;;22.63;4.95;;;13.30;99.90;;;13.36;100.00;100822.44;4964982;28;20682;-73
2022/05/06 01:00:39;;;;;;;35.83;8.00;;;13.30;99.90;;;13.32;100.00;100814.47;4950675;28;20212;-72
2022/05/06 01:03:06;;;;;;;31.70;11.60;;;13.30;99.90;;;13.35;100.00;100814.47;4966681;28;20239;-73
2022/05/06 01:05:35;;;;;;;38.17;17.30;;;13.30;99.90;;;13.30;100.00;100806.50;4946531;28;20240;-73
2022/05/06 01:08:04;;;;;;;37.55;25.92;;;13.30;99.90;;;13.34;100.00;100799.41;4949570;28;20209;-73
2022/05/06 01:10:33;;;;;;;30.05;22.33;;;13.30;99.90;;;13.32;100.00;100807.38;4964122;28;20213;-73
2022/05/06 01:13:00;;;;;;;25.10;10.40;;;13.30;99.90;;;13.31;100.00;100810.03;4951162;28;20221;-73
2022/05/06 01:15:30;;;;;;;31.95;7.78;;;12.80;99.90;;;13.24;100.00;100810.88;4952144;28;20216;-73
2022/05/06 01:18:12;;;;;;;39.45;8.43;;;13.20;99.90;;;13.22;100.00;100807.34;4938942;28;20197;-73
2022/05/06 01:20:49;;;;;;;29.98;8.85;;;13.20;99.90;;;13.19;100.00;100816.19;4949025;28;20213;-72
2022/05/06 01:23:18;;;;;;;18.52;5.95;;;13.20;99.90;;;13.18;100.00;100817.06;4947628;28;20674;-73
2022/05/06 01:25:46;;;;;;;21.00;6.13;;;13.20;99.90;;;13.25;100.00;100820.63;4943053;28;20225;-72
2022/05/06 01:28:15;;;;;;;20.58;6.28;;;13.20;99.90;;;13.27;100.00;100811.78;4953599;28;20213;-73
2022/05/06 01:30:48;;;;;;;30.50;7.50;;;13.20;99.90;;;13.25;100.00;100802.94;4938771;28;20205;-73
2022/05/06 01:33:21;;;;;;;29.23;6.78;;;13.20;99.90;;;13.20;100.00;100804.69;4944375;28;20201;-73
2022/05/06 01:35:55;;;;;;;29.60;8.43;;;13.20;99.90;;;13.23;100.00;100802.03;4964612;28;20235;-73
2022/05/06 01:38:51;;;;;;;38.92;13.95;;;13.10;99.90;;;13.18;100.00;100798.47;4947476;28;20216;-73
2022/05/06 01:41:24;;;;;;;37.13;14.02;;;13.20;99.90;;;13.20;100.00;100801.13;4942954;28;20205;-73
2022/05/06 01:44:09;;;;;;;31.08;25.63;;;13.10;99.90;;;13.17;100.00;100798.47;4951047;28;20213;-73
2022/05/06 01:46:39;;;;;;;29.77;24.48;;;13.10;99.90;;;13.13;100.00;100797.53;4944346;28;20232;-73
2022/05/06 01:49:14;;;;;;;39.08;28.45;;;13.10;99.90;;;13.12;100.00;100807.28;4961673;28;20232;-73
2022/05/06 01:51:43;;;;;;;35.03;15.93;;;13.10;99.90;;;13.05;100.00;100797.50;4963475;28;20213;-73
2022/05/06 01:54:16;;;;;;;29.65;16.23;;;13.10;99.90;;;13.08;100.00;100800.16;4947168;28;20221;-73
2022/05/06 01:56:47;;;;;;;25.73;17.05;;;13.00;99.90;;;13.12;100.00;100793.09;4947574;28;20232;-73
2022/05/06 01:59:17;;;;;;;36.38;19.35;;;13.10;99.90;;;13.10;100.00;100786.91;4946017;28;20209;-73
2022/05/06 02:01:47;;;;;;;24.98;8.65;;;13.00;99.90;;;13.05;100.00;100784.22;4946019;28;20209;-74
2022/05/06 02:07:09;;;;;;;26.75;18.75;;;13.00;99.90;;;13.05;100.00;100781.56;4948888;28;20229;-73
2022/05/06 02:09:41;;;;;;;22.08;12.68;;;13.00;99.90;;;13.02;100.00;100776.25;4950135;28;20233;-74
2022/05/06 02:12:12;;;;;;;18.23;9.82;;;13.00;99.90;;;13.03;100.00;100774.47;4952498;28;20213;-74
2022/05/06 02:15:15;;;;;;;13.93;11.35;;;12.90;99.90;;;13.03;100.00;100758.53;4955373;28;20213;-74
2022/05/06 02:18:09;;;;;;;22.55;15.52;;;13.00;99.90;;;12.94;100.00;100748.75;4971138;28;20200;-74
2022/05/06 02:20:51;;;;;;;34.65;20.35;;;13.00;99.90;;;12.93;100.00;100757.59;4951593;28;20213;-74
2022/05/06 02:23:39;;;;;;;35.28;32.03;;;12.90;99.90;;;12.86;100.00;100746.94;4951259;28;20275;-73
2022/05/06 02:26:39;;;;;;;54.78;49.90;;;12.90;99.90;;;12.78;100.00;100752.19;4946945;28;20240;-74
2022/05/06 02:29:08;;;;;;;30.67;23.98;;;12.80;99.90;;;12.74;100.00;100753.06;4972988;28;20236;-74
2022/05/06 02:34:26;;;;;;;32.13;17.38;;;12.70;99.90;;;12.63;100.00;100742.41;4952374;28;20209;-74
2022/05/06 02:37:01;;;;;;;23.35;16.50;;;12.70;99.90;;;12.61;100.00;100744.16;4944183;28;20224;-74
2022/05/06 02:39:42;;;;;;;32.75;20.02;;;12.70;99.90;;;12.61;100.00;100752.13;4970670;28;20688;-74
2022/05/06 02:42:24;;;;;;;29.90;27.25;;;12.60;99.90;;;12.62;100.00;100753.88;4966153;28;20213;-74
2022/05/06 02:44:52;;;;;;;29.10;15.95;;;12.60;99.90;;;12.54;100.00;100741.47;4967871;28;20212;-74
2022/05/06 02:47:22;;;;;;;41.85;37.42;;;12.60;99.90;;;12.52;100.00;100746.75;4967554;28;20229;-73
2022/05/06 02:49:51;;;;;;;47.25;41.00;;;12.60;99.90;;;12.50;100.00;100749.41;4953475;28;20235;-73
2022/05/06 02:52:20;;;;;;;47.60;42.72;;;12.50;99.90;;;12.44;100.00;100740.50;4965932;28;20232;-73
2022/05/06 02:54:49;;;;;;;49.83;44.95;;;12.50;99.90;;;12.45;100.00;100753.78;4946988;28;20209;-74
2022/05/06 02:57:20;;;;;;;28.10;24.92;;;12.40;99.90;;;12.43;100.00;100749.34;4960944;28;20225;-74
2022/05/06 02:59:48;;;;;;;50.33;45.75;;;12.40;99.90;;;12.36;100.00;100737.81;4957738;28;20209;-74
2022/05/06 03:02:19;;;;;;;26.25;23.40;;;12.40;99.90;;;12.34;100.00;100741.34;4969633;28;20227;-74
2022/05/06 03:04:48;;;;;;;36.60;19.75;;;12.40;99.90;;;12.25;100.00;100742.16;4961917;28;20213;-74
2022/05/06 03:07:20;;;;;;;29.77;16.55;;;12.30;99.90;;;12.26;100.00;100753.66;4947681;28;20239;-74
2022/05/06 03:09:52;;;;;;;50.95;46.72;;;12.30;99.90;;;12.29;100.00;100743.97;4960194;28;20705;-74
2022/05/06 03:12:26;;;;;;;30.73;28.08;;;12.30;99.90;;;12.20;100.00;100741.25;4956617;28;20213;-74
2022/05/06 03:15:13;;;;;;;29.40;16.60;;;12.20;99.90;;;12.17;100.00;100739.44;4973493;28;20213;-74
2022/05/06 03:17:47;;;;;;;29.35;15.50;;;12.20;99.90;;;12.16;100.00;100729.72;4967495;28;20213;-74
2022/05/06 03:20:16;;;;;;;33.13;13.77;;;12.20;99.90;;;12.16;100.00;100727.06;4967604;28;20221;-74
2022/05/06 03:22:49;;;;;;;27.17;11.98;;;12.20;99.90;;;12.15;100.00;100720.00;4948187;28;20213;-74
2022/05/06 03:25:18;;;;;;;26.48;11.82;;;12.10;99.90;;;12.12;100.00;100717.31;4969472;28;20220;-74
2022/05/06 03:30:39;;;;;;;27.33;23.95;;;12.10;99.90;;;12.14;100.00;100706.72;4955805;28;20712;-74
2022/05/06 03:33:19;;;;;;;48.33;44.42;;;12.10;99.90;;;12.14;100.00;100689.06;4955420;28;20212;-74
2022/05/06 03:35:48;;;;;;;39.05;35.40;;;12.10;99.90;;;12.12;100.00;100681.97;4940938;28;20229;-74
2022/05/06 03:38:18;;;;;;;29.25;22.25;;;12.10;99.90;;;12.12;100.00;100682.84;4968590;28;20209;-73
2022/05/06 03:40:50;;;;;;;31.52;16.42;;;12.10;99.90;;;12.14;100.00;100674.91;4948946;28;20213;-74
2022/05/06 03:43:19;;;;;;;22.45;11.30;;;12.10;99.90;;;12.10;100.00;100663.41;4958138;28;20208;-74
2022/05/06 03:45:48;;;;;;;21.10;11.55;;;12.10;99.90;;;12.09;100.00;100660.75;4967481;28;20236;-74
2022/05/06 03:48:24;;;;;;;25.35;16.08;;;12.10;99.90;;;12.02;100.00;100649.22;4970199;28;20212;-74
2022/05/06 03:53:44;;;;;;;25.95;12.20;;;12.00;99.90;;;11.92;100.00;100644.72;4962609;28;20201;-74
2022/05/06 03:56:12;;;;;;;23.17;10.00;;;12.00;99.90;;;11.87;100.00;100637.63;4966623;28;20255;-74
2022/05/06 03:58:44;;;;;;;20.90;9.23;;;11.90;99.90;;;11.85;100.00;100641.16;4950121;28;20217;-74
2022/05/06 04:01:18;;;;;;;20.38;10.63;;;11.90;99.90;;;11.77;100.00;100641.94;4951914;28;20205;-73
2022/05/06 04:03:51;;;;;;;19.70;18.20;;;11.90;99.90;;;11.74;100.00;100645.44;4951180;28;20209;-73
2022/05/06 04:06:24;;;;;;;41.92;40.08;;;11.90;99.90;;;11.71;100.00;100636.59;4954677;28;20240;-74
2022/05/06 04:08:55;;;;;;;82.13;77.75;;;11.80;99.90;;;11.74;100.00;100634.84;4951155;28;20221;-73
2022/05/06 04:11:26;;;;;;;51.40;48.08;;;11.70;99.90;;;11.71;100.00;100626.00;4961692;28;20236;-73
2022/05/06 04:13:59;;;;;;;61.78;58.03;;;11.70;99.90;;;11.68;100.00;100629.47;4945930;28;20593;-73
2022/05/06 04:16:28;;;;;;;45.40;43.08;;;11.70;99.90;;;11.64;100.00;100619.72;4967877;28;20236;-75
2022/05/06 04:19:00;;;;;;;38.15;35.97;;;11.60;99.90;;;11.62;100.00;100626.78;4968105;28;20205;-74
2022/05/06 04:24:17;;;;;;;39.95;35.28;;;11.60;99.90;;;11.57;100.00;100623.22;4964865;28;20210;-78
2022/05/06 04:26:46;;;;;;;34.88;31.30;;;11.60;99.90;;;11.49;100.00;100624.91;4952904;28;20225;-74
2022/05/06 04:29:15;;;;;;;33.65;31.20;;;11.50;99.90;;;11.48;100.00;100629.31;4967297;28;20205;-75
2022/05/06 04:31:50;;;;;;;41.30;38.50;;;11.50;99.90;;;11.44;100.00;100619.56;4963987;28;20236;-76
2022/05/06 04:34:19;;;;;;;57.17;53.03;;;11.50;99.90;;;11.40;100.00;100628.38;4959524;28;20705;-76
2022/05/06 04:36:47;;;;;;;37.17;34.67;;;11.50;99.90;;;11.33;100.00;100623.00;4964389;28;20240;-76
2022/05/06 04:39:16;;;;;;;23.05;20.80;;;11.40;99.90;;;11.28;100.00;100638.84;4963771;28;20208;-75
2022/05/06 04:41:50;;;;;;;19.67;15.40;;;11.30;99.90;;;11.30;100.00;100645.03;4962018;28;20209;-74
2022/05/06 04:44:25;;;;;;;26.35;15.35;;;11.40;99.90;;;11.31;100.00;100648.56;4976277;28;20221;-74
2022/05/06 04:46:55;;;;;;;10.38;9.13;;;11.30;99.90;;;11.29;100.00;100656.50;4965541;28;20224;-76
2022/05/06 04:49:24;;;;;;;10.90;8.65;;;11.30;99.90;;;11.25;100.00;100659.09;4952763;28;20216;-76
2022/05/06 04:51:52;;;;;;;11.75;6.13;;;11.30;99.90;;;11.27;100.00;100666.19;4970730;28;20613;-74
2022/05/06 04:54:20;;;;;;;14.90;8.32;;;11.30;99.90;;;11.25;100.00;100667.03;4971266;28;20212;-74
2022/05/06 04:56:49;;;;;;;27.38;13.77;;;11.20;99.90;;;11.15;100.00;100666.97;4949995;28;20325;-74
2022/05/06 04:59:24;;;;;;;17.33;10.75;;;11.20;99.90;;;11.23;100.00;100677.63;4968555;28;20212;-77
2022/05/06 05:01:54;;;;;;;20.27;13.70;;;11.20;99.90;;;11.23;100.00;100675.88;4968865;28;20201;-75
2022/05/06 05:04:27;;;;;;;17.05;9.13;;;11.20;99.90;;;11.26;100.00;100675.00;4935735;28;20201;-75
2022/05/06 05:07:01;;;;;;;18.77;12.07;;;11.20;99.90;;;11.22;100.00;100675.84;4952596;28;20229;-73
2022/05/06 05:09:30;;;;;;;16.92;8.95;;;11.20;99.90;;;11.15;100.00;100677.53;4950735;28;20205;-74
2022/05/06 05:11:58;;;;;;;20.50;11.70;;;11.20;99.90;;;11.08;100.00;100681.00;4969088;28;20242;-74
2022/05/06 05:14:37;;;;;;;9.95;8.25;;;11.20;99.90;;;11.05;100.00;100688.00;4971752;28;20201;-75
2022/05/06 05:17:11;;;;;;;24.58;14.82;;;11.10;99.90;;;11.07;100.00;100691.56;4947651;28;20236;-74
2022/05/06 05:19:40;;;;;;;27.65;8.90;;;11.10;99.90;;;11.09;100.00;100697.75;4955027;28;20252;-74
2022/05/06 05:22:09;;;;;;;14.38;7.75;;;11.10;99.90;;;11.10;100.00;100696.88;4971392;28;20208;-74
2022/05/06 05:24:39;;;;;;;15.40;13.98;;;11.10;99.90;;;11.15;100.00;100704.00;4962167;28;20206;-74
2022/05/06 05:27:08;;;;;;;14.48;13.02;;;10.50;99.90;;;11.11;100.00;100694.25;4963715;28;20225;-75
2022/05/06 05:29:36;;;;;;;30.70;28.90;;;11.10;99.90;;;11.12;100.00;100703.97;4970017;28;20216;-75
2022/05/06 05:32:06;;;;;;;25.80;23.83;;;11.10;99.90;;;11.11;100.00;100709.25;4953089;28;20241;-73
2022/05/06 05:34:36;;;;;;;24.73;22.98;;;11.10;99.90;;;11.07;100.00;100702.16;4968366;28;20232;-73
2022/05/06 05:37:12;;;;;;;27.55;26.15;;;11.10;99.90;;;11.08;100.00;100703.94;4969993;28;20247;-73
2022/05/06 05:39:41;;;;;;;32.90;30.90;;;11.10;99.90;;;11.08;100.00;100710.13;4957888;28;20220;-73
2022/05/06 05:42:13;;;;;;;40.20;38.47;;;11.10;99.90;;;11.08;100.00;100717.16;4956788;28;20217;-73
2022/05/06 05:50:19;;;;;;;33.00;30.77;;;11.10;99.90;;;11.19;100.00;100721.72;4945739;28;20224;-73
2022/05/06 05:52:47;;;;;;;24.98;23.45;;;11.10;99.90;;;11.27;100.00;100716.50;4968898;28;20280;-75
2022/05/06 05:55:18;;;;;;;27.33;19.40;;;11.10;99.90;;;11.44;100.00;100733.44;4966443;28;20209;-74
2022/05/06 05:57:47;;;;;;;42.30;38.55;;;11.20;99.90;;;11.68;100.00;100740.75;4955795;28;20213;-73
2022/05/06 06:00:16;;;;;;;21.27;19.02;;;11.30;99.90;;;11.70;100.00;100731.06;4951051;28;20208;-74
2022/05/06 06:02:51;;;;;;;18.13;12.73;;;11.40;99.90;;;11.94;100.00;100769.31;4972576;28;20200;-73
2022/05/06 06:05:19;;;;;;;19.88;10.13;;;11.50;99.90;;;12.15;99.33;100764.19;4967838;28;20200;-73
2022/05/06 06:07:47;;;;;;;27.58;9.50;;;11.70;99.90;;;12.30;98.09;100766.94;4969878;28;20593;-73
2022/05/06 06:10:18;;;;;;;15.55;5.35;;;11.90;99.90;;;12.39;94.89;100744.91;4975425;28;20205;-73
2022/05/06 06:12:48;;;;;;;23.30;6.55;;;12.00;99.90;;;12.48;94.62;100737.88;4967076;28;20237;-71
2022/05/06 06:15:16;;;;;;;21.77;5.10;;;12.10;99.90;;;12.57;93.08;100737.06;4952642;28;20678;-74
2022/05/06 06:17:46;;;;;;;17.85;4.35;;;12.20;99.90;;;12.62;93.34;100734.44;4928081;28;20216;-74
2022/05/06 06:20:15;;;;;;;18.08;5.03;;;12.40;99.90;;;12.66;94.46;100749.50;4969609;28;20585;-74
2022/05/06 06:22:45;;;;;;;16.95;3.72;;;12.40;99.90;;;12.76;94.20;100757.50;4969086;28;20206;-74
2022/05/06 06:25:15;;;;;;;20.80;4.82;;;12.50;99.90;;;12.82;95.29;100784.06;4977757;28;20205;-73
2022/05/06 06:27:44;;;;;;;24.67;5.30;;;12.50;99.90;;;12.92;94.25;100781.47;4949419;28;20212;-72
2022/05/06 06:30:13;;;;;;;13.30;3.05;;;12.60;99.90;;;12.99;92.98;100775.31;4968029;28;20234;-72
2022/05/06 06:32:53;;;;;;;15.02;3.70;;;12.70;99.90;;;13.10;92.82;100760.34;4949813;28;20233;-72
2022/05/06 06:35:22;;;;;;;14.00;3.03;;;12.80;99.90;;;13.09;91.46;100754.16;4951966;28;20205;-73
2022/05/06 06:37:54;;;;;;;19.02;4.28;;;12.80;99.90;;;13.16;91.96;100764.78;4963434;28;20220;-73
2022/05/06 06:40:24;;;;;;;16.05;5.97;;;12.90;99.90;;;13.30;91.57;100763.09;4961994;28;20201;-72
2022/05/06 06:42:53;;;;;;;19.75;4.65;;;13.00;99.90;;;13.33;92.77;100769.31;4951007;28;20213;-72
2022/05/06 06:45:28;;;;;;;27.70;6.10;;;13.00;99.90;;;13.53;92.11;100789.72;4947957;28;20209;-73
2022/05/06 06:48:28;;;;;;;22.35;6.65;;;13.20;99.90;;;13.57;91.31;100776.47;4951425;28;20222;-73
2022/05/06 06:51:15;;;;;;;14.98;5.18;;;13.30;99.90;;;13.60;90.01;100752.56;4963247;28;20263;-73
2022/05/06 06:53:53;;;;;;;30.40;9.77;;;13.30;99.90;;;13.80;90.98;100781.81;4969012;28;20614;-73
2022/05/06 06:56:22;;;;;;;6.13;5.63;;;13.40;99.90;;;13.90;91.98;100803.97;4967540;28;20244;-76
2022/05/06 06:58:50;;;;;;;11.52;10.65;;;13.50;99.90;;;13.71;91.43;100756.09;4971102;28;20201;-75
2022/05/06 07:01:18;;;;;;;14.32;12.93;;;13.60;99.90;;;13.76;91.01;100748.13;4951982;28;20220;-75
2022/05/06 07:03:46;;;;;;;17.42;16.02;;;13.60;99.90;;;13.89;91.97;100781.81;4954550;28;20212;-75
2022/05/06 07:11:53;;;;;;;131.70;125.00;;;13.70;99.90;;;14.04;90.71;100755.25;4967618;28;20251;-74
2022/05/06 07:14:25;;;;;;;106.57;100.90;;;13.80;99.90;;;14.26;90.27;100785.38;4966499;28;20209;-74
2022/05/06 07:16:54;;;;;;;88.40;83.15;;;14.00;99.90;;;14.25;89.02;100767.66;4979377;28;20241;-74
2022/05/06 07:19:22;;;;;;;67.70;63.92;;;14.00;99.90;;;14.43;88.84;100776.56;4966411;28;20210;-74
2022/05/06 07:21:51;;;;;;;26.98;24.73;;;14.10;99.90;;;14.49;89.06;100788.09;4961099;28;20217;-74
2022/05/06 07:24:19;;;;;;;20.50;18.38;;;14.20;99.90;;;14.58;90.22;100806.69;4972406;28;20212;-74
2022/05/06 07:26:48;;;;;;;17.63;10.80;;;14.30;99.90;;;14.75;89.91;100816.44;4965544;28;20237;-74
2022/05/06 07:29:16;;;;;;;27.63;16.95;;;14.40;99.90;;;14.85;90.51;100829.72;4962588;28;20205;-74
2022/05/06 07:31:44;;;;;;;34.60;31.40;;;14.60;99.90;;;15.20;91.77;100866.03;4954586;28;20749;-75
2022/05/06 07:34:13;;;;;;;24.77;21.55;;;14.80;99.90;;;15.09;90.04;100819.91;4969447;28;20213;-74
2022/05/06 07:36:42;;;;;;;24.95;14.55;;;14.80;99.90;;;15.41;90.73;100863.28;4968988;28;20236;-74
2022/05/06 07:39:12;;;;;;;18.70;7.78;;;15.00;99.90;;;15.22;91.22;100827.84;4969366;28;20212;-74
2022/05/06 07:41:41;;;;;;;14.80;6.03;;;15.00;99.90;;;15.55;90.39;100861.47;4965015;28;20287;-74
2022/05/06 07:44:09;;;;;;;6.45;5.55;;;15.20;99.90;;;15.40;88.82;100797.56;4965321;28;20202;-74
2022/05/06 07:46:37;;;;;;;9.65;8.45;;;15.20;99.90;;;15.51;88.61;100810.84;4960364;28;20232;-74
2022/05/06 07:49:06;;;;;;;29.60;9.80;;;15.30;99.90;;;15.56;87.56;100793.03;4968101;28;20210;-74
2022/05/06 07:51:34;;;;;;;26.23;6.60;;;15.40;99.90;;;15.84;87.14;100817.81;4963087;28;20214;-75
2022/05/06 07:54:03;;;;;;;9.85;5.75;;;15.50;99.90;;;15.81;87.14;100789.38;4969090;28;20232;-76
2022/05/06 07:56:31;;;;;;;12.05;5.82;;;15.70;99.90;;;15.81;87.52;100778.72;4971378;28;20235;-76
2022/05/06 07:59:00;;;;;;;18.05;7.05;;;15.70;99.90;;;15.97;87.58;100793.72;4966627;28;20217;-78
2022/05/06 08:04:32;;;;;;;11.45;3.15;;;15.90;99.90;;;16.30;86.54;100816.59;4979363;28;20205;-74
2022/05/06 08:07:02;;;;;;;13.95;3.60;;;16.10;99.90;;;16.41;85.44;100804.94;4980453;28;20229;-75
2022/05/06 08:09:30;;;;;;;15.85;5.75;;;16.20;99.90;;;16.38;83.86;100762.25;4966059;28;20225;-75
2022/05/06 08:11:58;;;;;;;9.40;2.78;;;16.30;99.90;;;16.49;84.59;100782.59;4967318;28;20634;-74
2022/05/06 08:14:26;;;;;;;17.13;8.15;;;16.40;99.90;;;16.78;84.60;100805.50;4971303;28;20302;-75
2022/05/06 08:16:55;;;;;;;16.95;10.85;;;16.50;99.90;;;16.69;83.66;100770.88;4971402;28;20229;-74
2022/05/06 08:19:23;;;;;;;14.88;12.15;;;16.50;99.90;;;16.79;82.51;100757.41;4973123;28;20221;-74
2022/05/06 08:21:51;;;;;;;24.83;18.63;;;16.60;99.90;;;17.03;82.64;100774.97;4974474;28;20209;-74
2022/05/06 08:24:21;;;;;;;15.00;9.27;;;16.80;99.90;;;16.86;80.87;100713.69;4954793;28;20558;-74
2022/05/06 08:26:49;;;;;;;21.40;8.23;;;16.80;99.90;;;17.33;82.96;100795.06;4971412;28;20606;-74
2022/05/06 08:29:17;;;;;;;13.07;5.80;;;16.90;99.90;;;17.21;80.00;100713.25;4971049;28;20212;-74
2022/05/06 08:31:45;;;;;;;12.93;2.97;;;17.10;99.90;;;17.41;80.69;100742.38;4979629;28;20217;-74
2022/05/06 08:34:13;;;;;;;15.07;3.38;;;17.10;99.90;;;17.26;79.22;100673.97;4970968;28;20213;-75
2022/05/06 08:36:43;;;;;;;15.73;4.15;;;17.30;99.90;;;17.32;79.03;100678.34;4963690;28;20698;-74
2022/05/06 08:39:12;;;;;;;18.20;16.50;;;17.30;99.90;;;18.09;79.41;100783.28;4971595;28;20213;-74
2022/05/06 08:41:41;;;;;;;40.33;37.55;;;17.50;99.90;;;18.03;77.36;100708.44;4969743;28;20213;-74
2022/05/06 08:53:11;;;;;;;56.65;52.35;;;18.30;99.90;;;18.38;76.51;100678.41;4956231;28;20217;-75
2022/05/06 08:55:40;;;;;;;74.00;70.03;;;18.50;99.90;;;18.46;77.38;100699.69;4948387;28;20225;-73
2022/05/06 08:58:08;;;;;;;83.75;79.28;;;18.50;99.90;;;18.49;75.13;100662.13;4979815;28;20220;-74
2022/05/06 09:00:36;;;;;;;37.33;34.30;;;18.60;99.90;;;18.40;75.02;100625.69;4971734;28;20222;-74
2022/05/06 09:03:04;;;;;;;20.35;13.02;;;18.70;99.90;;;18.70;72.77;100618.88;4969151;28;20208;-74
2022/05/06 09:05:32;;;;;;;15.63;4.43;;;18.80;99.90;;;18.51;71.63;100545.13;4973318;28;20216;-74
2022/05/06 09:08:02;;;;;;;15.02;5.72;;;18.90;99.90;;;18.53;72.87;100564.75;4977486;28;20211;-74
2022/05/06 09:10:31;;;;;;;17.30;14.75;;;18.70;99.90;;;19.00;75.11;100662.88;4977141;28;20220;-74
2022/05/06 09:13:00;;;;;;;21.27;19.45;;;19.00;99.90;;;18.78;72.44;100566.00;4970064;28;20233;-74
2022/05/06 09:18:22;;;;;;;18.70;15.52;;;19.30;99.90;;;19.07;70.33;100538.50;4981539;28;20227;-76
2022/05/06 09:21:14;;;;;;;40.78;38.08;;;19.50;99.90;;;19.24;72.18;100581.00;4968545;28;20206;-77
2022/05/06 09:23:42;;;;;;;33.00;30.48;;;19.70;99.90;;;19.21;71.13;100559.63;4973972;28;20236;-76
2022/05/06 09:26:18;;;;;;;30.70;28.48;;;19.60;99.90;;;19.34;70.72;100563.75;4980821;28;20229;-76
2022/05/06 09:28:46;;;;;;;34.53;32.05;;;19.70;99.90;;;19.36;69.92;100528.88;4979063;28;20212;-74
2022/05/06 09:31:14;;;;;;;38.50;35.75;;;19.80;99.90;;;19.28;68.41;100463.81;4984378;28;20211;-74
2022/05/06 09:33:46;;;;;;;25.17;17.80;;;19.90;99.90;;;19.33;66.71;100429.72;4966690;28;20623;-74
2022/05/06 09:36:28;;;;;;;20.08;18.35;;;19.70;99.90;;;19.59;66.56;100464.84;4971105;28;20729;-74
2022/05/06 09:39:10;;;;;;;28.20;25.83;;;19.80;99.90;;;19.84;68.56;100507.97;4971262;28;20673;-74
2022/05/06 09:41:40;;;;;;;30.23;27.70;;;20.00;99.90;;;19.97;66.76;100489.72;4969659;28;20214;-74
2022/05/06 09:44:10;;;;;;;30.13;27.55;;;20.20;99.90;;;19.58;66.56;100413.91;4967007;28;20205;-74
2022/05/06 09:46:38;;;;;;;31.17;28.67;;;20.10;99.90;;;20.05;67.37;100483.19;4974825;28;20227;-74
2022/05/06 09:49:06;;;;;;;40.42;37.05;;;20.30;99.90;;;20.12;67.49;100484.78;4969187;28;20224;-74
2022/05/06 09:51:54;;;;;;;66.05;61.60;;;20.60;99.90;;;20.51;67.58;100532.91;4976989;28;20215;-74
2022/05/06 09:54:32;;;;;;;54.85;51.28;;;20.80;99.90;;;20.59;65.46;100487.88;4959648;28;20260;-74
2022/05/06 09:57:03;;;;;;;65.35;61.45;;;20.90;99.90;;;20.62;65.81;100468.09;4972057;28;20236;-74
2022/05/06 09:59:31;;;;;;;69.40;65.43;;;21.00;99.90;;;20.62;63.19;100406.28;4957524;28;20216;-73
2022/05/06 10:02:00;;;;;;;53.70;50.05;;;21.10;99.90;;;20.58;66.12;100432.38;4962987;28;20209;-73
2022/05/06 10:04:35;;;;;;;54.42;50.75;;;21.00;99.90;;;21.03;65.16;100478.41;4955560;28;20196;-73
2022/05/06 10:07:12;;;;;;;59.55;55.95;;;21.30;99.90;;;20.64;63.81;100348.88;4962368;28;20225;-73
2022/05/06 10:10:05;;;;;;;72.57;68.57;;;21.40;99.90;;;21.05;62.95;100400.38;4949930;28;20215;-73
2022/05/06 10:12:44;;;;;;;47.58;44.75;;;21.50;99.90;;;21.09;63.11;100375.13;4981430;28;20212;-73
2022/05/06 10:15:13;;;;;;;43.10;39.60;;;22.70;99.90;;;21.35;62.58;100369.75;4954826;28;20211;-73
2022/05/06 10:17:59;;;;;;;31.55;29.38;;;22.00;99.90;;;21.39;64.44;100421.63;4942639;28;20216;-73
2022/05/06 10:20:36;;;;;;;91.75;87.10;;;21.80;99.90;;;21.22;63.84;100360.34;4976632;28;20207;-73
2022/05/06 10:23:07;;;;;;;18.80;14.40;;;22.00;99.90;;;21.46;62.32;100368.47;4975197;28;20225;-73
2022/05/06 10:25:42;;;;;;;30.08;14.57;;;22.00;99.90;;;21.19;63.23;100330.84;4947229;28;20247;-73
2022/05/06 10:34:10;;;;;;;17.75;15.27;;;21.50;99.90;;;20.98;61.16;100250.97;4962357;28;20239;-74
2022/05/06 10:36:51;;;;;;;31.70;28.83;;;21.40;99.90;;;21.42;62.85;100321.09;4965735;28;20613;-75
2022/05/06 10:39:36;;;;;;;57.85;53.95;;;21.70;99.90;;;21.69;62.00;100337.06;4974709;28;20208;-74
2022/05/06 10:42:17;;;;;;;155.30;146.63;;;22.10;99.90;;;21.73;60.39;100275.91;4975214;28;20204;-74
2022/05/06 10:44:50;;;;;;;22.10;19.65;;;22.00;99.90;;;21.30;59.51;100185.25;4972129;28;20271;-73
2022/05/06 10:47:18;;;;;;;43.88;40.30;;;22.10;99.90;;;22.16;60.82;100338.91;4966073;28;20240;-74
2022/05/06 10:49:51;;;;;;;65.68;61.15;;;22.40;99.90;;;21.70;59.92;100211.44;4967538;28;20208;-73
2022/05/06 10:55:00;;;;;;;15.75;9.82;;;22.60;99.90;;;21.74;60.37;100213.06;4972298;28;20263;-75
2022/05/06 10:57:45;;;;;;;103.00;97.68;;;22.60;99.90;;;21.79;60.86;100205.69;4971336;28;20220;-75
2022/05/06 11:00:13;;;;;;;103.43;97.63;;;22.60;99.90;;;22.19;60.73;100279.53;4972521;28;20201;-74
2022/05/06 11:02:41;;;;;;;262.95;249.25;;;22.90;99.90;;;21.80;58.53;100136.59;4968309;28;20238;-75
2022/05/06 11:05:14;;;;;;;163.73;154.48;;;22.90;99.90;;;21.42;61.43;100127.38;4968972;28;20613;-74